Time;durP1;ratioP1;P1;durP2;ratioP2;P2;SDS_P1;SDS_P2;PMS_P1;PMS_P2;Temp;Humidity;BMP_temperature;BMP_pressure;BME280_temperature;BME280_humidity;BME280_pressure;Samples;Min_cycle;Max_cycle;Signal;HPM_P1;HPM_P2
2022/02/19 00:02:11;;;;;;;;;;;;;;;-147.53;100.00;59759.91;5147081;27;19915;-80
2022/02/19 00:04:36;;;;;;;;;;;;;;;-147.53;100.00;59759.91;5143495;27;19948;-86
2022/02/19 00:07:02;;;;;;;;;;;;;;;-147.53;100.00;59759.91;5139362;27;19923;-85
2022/02/19 00:09:27;;;;;;;;;;;;;;;-147.53;100.00;59759.91;5142996;27;20011;-86
2022/02/19 00:11:52;;;;;;;;;;;;;;;-147.53;100.00;59759.91;5140018;27;19922;-81
2022/02/19 00:14:18;;;;;;;;;;;;;;;-147.53;100.00;59759.91;5139886;27;19923;-83
2022/02/19 00:16:43;;;;;;;;;;;;;;;-147.53;100.00;59759.91;5139452;27;19915;-85
2022/02/19 00:19:08;;;;;;;;;;;;;;;-147.53;100.00;59759.91;5140320;27;19916;-83
2022/02/19 00:21:33;;;;;;;;;;;;;;;-147.53;100.00;59759.91;5140423;27;20392;-85
2022/02/19 00:23:59;;;;;;;;;;;;;;;-147.53;100.00;59759.91;5141413;27;19919;-88
2022/02/19 00:26:24;;;;;;;;;;;;;;;-147.53;100.00;59759.91;5139443;27;19955;-81
2022/02/19 00:28:50;;;;;;;;;;;;;;;-147.53;100.00;59759.91;5140953;27;19926;-85
2022/02/19 00:31:15;;;;;;;;;;;;;;;-147.53;100.00;59759.91;5139395;27;19920;-85
2022/02/19 00:33:40;;;;;;;;;;;;;;;-147.53;100.00;59759.91;5138967;27;20014;-81
2022/02/19 00:36:06;;;;;;;;;;;;;;;-147.53;100.00;59759.91;5139439;27;20002;-85
2022/02/19 00:38:31;;;;;;;;;;;;;;;-147.53;100.00;59759.91;5143068;27;19920;-84
2022/02/19 00:40:56;;;;;;;;;;;;;;;-147.53;100.00;59759.91;5142753;27;19917;-85
2022/02/19 00:43:21;;;;;;;;;;;;;;;-147.53;100.00;59759.91;5145299;27;19921;-79
2022/02/19 00:45:49;;;;;;;;;;;;;;;-147.53;100.00;59759.91;5145825;27;20470;-80
2022/02/19 00:48:14;;;;;;;;;;;;;;;-147.53;100.00;59759.91;5144239;27;20014;-86
2022/02/19 00:50:40;;;;;;;;;;;;;;;-147.53;100.00;59759.91;5146165;27;19944;-81
2022/02/19 00:53:05;;;;;;;;;;;;;;;-147.53;100.00;59759.91;5143905;27;19959;-84
2022/02/19 00:55:30;;;;;;;;;;;;;;;-147.53;100.00;59759.91;5150261;27;19922;-80
2022/02/19 00:57:56;;;;;;;;;;;;;;;-147.53;100.00;59759.91;5164885;27;19915;-86
2022/02/19 01:00:21;;;;;;;;;;;;;;;-147.53;100.00;59759.91;5143043;27;19965;-85
2022/02/19 01:02:46;;;;;;;;;;;;;;;-147.53;100.00;59759.91;5161315;27;19919;-86
2022/02/19 01:05:11;;;;;;;;;;;;;;;-147.53;100.00;59759.91;5160051;27;19919;-85
2022/02/19 01:07:37;;;;;;;;;;;;;;;-147.53;100.00;59759.91;5159627;27;20011;-86
2022/02/19 01:10:03;;;;;;;;;;;;;;;-147.53;100.00;59759.91;5141738;27;20540;-85
2022/02/19 01:12:29;;;;;;;;;;;;;;;-147.53;100.00;59759.91;5141713;27;20193;-82
2022/02/19 01:14:54;;;;;;;;;;;;;;;-147.53;100.00;59759.91;5140574;27;19919;-87
2022/02/19 01:17:19;;;;;;;;;;;;;;;-147.53;100.00;59759.91;5161056;27;19920;-84
2022/02/19 01:19:45;;;;;;;;;;;;;;;-147.53;100.00;59759.91;5161577;27;20340;-87
2022/02/19 01:22:10;;;;;;;;;;;;;;;-147.53;100.00;59759.91;5160342;27;19926;-82
2022/02/19 01:24:36;;;;;;;;;;;;;;;-147.53;100.00;59759.91;5141192;27;19919;-86
2022/02/19 01:27:01;;;;;;;;;;;;;;;-147.53;100.00;59759.91;5141325;27;20044;-86
2022/02/19 01:29:26;;;;;;;;;;;;;;;-147.53;100.00;59759.91;5141890;27;19926;-82
2022/02/19 01:31:51;;;;;;;;;;;;;;;-147.53;100.00;59759.91;5140577;27;20379;-84
2022/02/19 01:34:17;;;;;;;;;;;;;;;-147.53;100.00;59759.91;5142723;27;19919;-84
2022/02/19 01:36:42;;;;;;;;;;;;;;;-147.53;100.00;59759.91;5143429;27;19968;-82
2022/02/19 01:39:07;;;;;;;;;;;;;;;-147.53;100.00;59759.91;5170310;27;19915;-81
2022/02/19 01:41:33;;;;;;;;;;;;;;;-147.53;100.00;59759.91;5149165;27;19950;-81
2022/02/19 01:44:06;;;;;;;;;;;;;;;-147.53;100.00;59759.91;5166962;27;19915;-79
2022/02/19 01:46:31;;;;;;;;;;;;;;;-147.53;100.00;59759.91;5147673;27;19915;-81
2022/02/19 01:48:57;;;;;;;;;;;;;;;-147.53;100.00;59759.91;5149635;27;19915;-80
2022/02/19 01:51:23;;;;;;;;;;;;;;;-147.53;100.00;59759.91;5132937;27;19970;-83
2022/02/19 01:53:48;;;;;;;;;;;;;;;-147.53;100.00;59759.91;5149386;27;19919;-82
2022/02/19 01:56:14;;;;;;;;;;;;;;;-147.53;100.00;59759.91;5169290;27;19953;-81
2022/02/19 01:58:40;;;;;;;;;;;;;;;-147.53;100.00;59759.91;5154021;27;19915;-81
2022/02/19 02:01:05;;;;;;;;;;;;;;;-147.53;100.00;59759.91;5153289;27;19915;-81
2022/02/19 02:03:35;;;;;;;;;;;;;;;-147.53;100.00;59759.91;5152521;27;19929;-87
2022/02/19 02:06:00;;;;;;;;;;;;;;;-147.53;100.00;59759.91;5166197;27;20304;-85
2022/02/19 02:08:26;;;;;;;;;;;;;;;-147.53;100.00;59759.91;5130883;27;19919;-84
2022/02/19 02:10:52;;;;;;;;;;;;;;;-147.53;100.00;59759.91;5147673;27;19915;-86
2022/02/19 02:13:17;;;;;;;;;;;;;;;-147.53;100.00;59759.91;5147837;27;19922;-81
2022/02/19 02:15:42;;;;;;;;;;;;;;;-147.53;100.00;59759.91;5149509;27;19929;-81
2022/02/19 02:18:07;;;;;;;;;;;;;;;-147.53;100.00;59759.91;5147605;27;19926;-84
2022/02/19 02:20:33;;;;;;;;;;;;;;;-147.53;100.00;59759.91;5149103;27;19918;-83
2022/02/19 02:22:59;;;;;;;;;;;;;;;-147.53;100.00;59759.91;5149522;27;19915;-82
2022/02/19 02:25:28;;;;;;;;;;;;;;;-147.53;100.00;59759.91;5168266;27;20273;-87
2022/02/19 02:27:54;;;;;;;;;;;;;;;-147.53;100.00;59759.91;5169492;27;19915;-84
2022/02/19 02:30:19;;;;;;;;;;;;;;;-147.53;100.00;59759.91;5151561;27;19978;-85
2022/02/19 02:32:45;;;;;;;;;;;;;;;-147.53;100.00;59759.91;5149677;27;19919;-87
2022/02/19 02:35:10;;;;;;;;;;;;;;;-147.53;100.00;59759.91;5149629;27;19919;-86
2022/02/19 02:37:35;;;;;;;;;;;;;;;-147.53;100.00;59759.91;5146258;27;20006;-86
2022/02/19 02:40:00;;;;;;;;;;;;;;;-147.53;100.00;59759.91;5146921;27;19994;-86
2022/02/19 02:42:26;;;;;;;;;;;;;;;-147.53;100.00;59759.91;5146740;27;19922;-86
2022/02/19 02:44:52;;;;;;;;;;;;;;;-147.53;100.00;59759.91;5150530;27;19922;-82
2022/02/19 02:47:17;;;;;;;;;;;;;;;-147.53;100.00;59759.91;5151908;27;19978;-84
2022/02/19 02:49:44;;;;;;;;;;;;;;;-147.53;100.00;59759.91;5151738;27;19915;-79
2022/02/19 02:52:09;;;;;;;;;;;;;;;-147.53;100.00;59759.91;5154170;27;19911;-79
2022/02/19 02:54:35;;;;;;;;;;;;;;;-147.53;100.00;59759.91;5146960;27;19965;-79
2022/02/19 02:57:00;;;;;;;;;;;;;;;-147.53;100.00;59759.91;5126641;27;19935;-83
2022/02/19 02:59:26;;;;;;;;;;;;;;;-147.53;100.00;59759.91;5147913;27;19916;-80
2022/02/19 03:01:51;;;;;;;;;;;;;;;-147.53;100.00;59759.91;5147305;27;19976;-80
2022/02/19 03:04:17;;;;;;;;;;;;;;;-147.53;100.00;59759.91;5146968;27;19923;-85
2022/02/19 03:06:42;;;;;;;;;;;;;;;-147.53;100.00;59759.91;5144258;27;19916;-85
2022/02/19 03:09:07;;;;;;;;;;;;;;;-147.53;100.00;59759.91;5141063;27;19998;-84
2022/02/19 03:11:32;;;;;;;;;;;;;;;-147.53;100.00;59759.91;5144943;27;20353;-84
2022/02/19 03:13:57;;;;;;;;;;;;;;;-147.53;100.00;59759.91;5126082;27;20531;-83
2022/02/19 03:16:23;;;;;;;;;;;;;;;-147.53;100.00;59759.91;5147161;27;19912;-84
2022/02/19 03:18:48;;;;;;;;;;;;;;;-147.53;100.00;59759.91;5145781;27;19916;-81
2022/02/19 03:21:13;;;;;;;;;;;;;;;-147.53;100.00;59759.91;5144168;27;19922;-86
2022/02/19 03:23:38;;;;;;;;;;;;;;;-147.53;100.00;59759.91;5144183;27;19911;-84
2022/02/19 03:26:07;;;;;;;;;;;;;;;-147.53;100.00;59759.91;5148315;27;19922;-79
2022/02/19 03:28:33;;;;;;;;;;;;;;;-147.53;100.00;59759.91;5119590;22;19925;-79
2022/02/19 03:30:58;;;;;;;;;;;;;;;-147.53;100.00;59759.91;5067386;28;19924;-83
2022/02/19 03:33:23;;;;;;;;;;;;;;;-147.53;100.00;59759.91;5065068;28;20400;-85
2022/02/19 03:35:49;;;;;;;;;;;;;;;-147.53;100.00;59759.91;5067392;28;19917;-81
2022/02/19 03:38:14;;;;;;;;;;;;;;;-147.53;100.00;59759.91;5067503;28;19988;-80
2022/02/19 03:40:39;;;;;;;;;;;;;;;-147.53;100.00;59759.91;5067173;28;19948;-80
2022/02/19 03:43:04;;;;;;;;;;;;;;;-147.53;100.00;59759.91;5068663;28;19916;-82
2022/02/19 03:45:30;;;;;;;;;;;;;;;-147.53;100.00;59759.91;5068698;28;20014;-81
2022/02/19 03:47:56;;;;;;;;;;;;;;;-147.53;100.00;59759.91;5066780;28;19943;-79
2022/02/19 03:50:21;;;;;;;;;;;;;;;-147.53;100.00;59759.91;5067326;28;19920;-80
2022/02/19 03:52:47;;;;;;;;;;;;;;;-147.53;100.00;59759.91;5066839;28;19924;-84
2022/02/19 03:55:12;;;;;;;;;;;;;;;-147.53;100.00;59759.91;5068390;28;19927;-80
2022/02/19 03:57:37;;;;;;;;;;;;;;;-147.53;100.00;59759.91;5067178;28;19925;-84
2022/02/19 04:00:05;;;;;;;;;;;;;;;-147.53;100.00;59759.91;5067163;28;19974;-80
2022/02/19 04:02:31;;;;;;;;;;;;;;;-147.53;100.00;59759.91;5050927;28;19921;-80
2022/02/19 04:04:56;;;;;;;;;;;;;;;-147.53;100.00;59759.91;5067755;28;19924;-83
2022/02/19 04:07:21;;;;;;;;;;;;;;;-147.53;100.00;59759.91;5067207;28;19921;-81
2022/02/19 04:09:47;;;;;;;;;;;;;;;-147.53;100.00;59759.91;5067749;28;20282;-82
2022/02/19 04:12:12;;;;;;;;;;;;;;;-147.53;100.00;59759.91;5068015;28;19917;-80
2022/02/19 04:14:37;;;;;;;;;;;;;;;-147.53;100.00;59759.91;5067887;28;19917;-82
2022/02/19 04:17:02;;;;;;;;;;;;;;;-147.53;100.00;59759.91;5068599;28;19969;-80
2022/02/19 04:19:28;;;;;;;;;;;;;;;-147.53;100.00;59759.91;5067000;28;19917;-80
2022/02/19 04:21:53;;;;;;;;;;;;;;;-147.53;100.00;59759.91;5067024;28;20371;-81
2022/02/19 04:24:18;;;;;;;;;;;;;;;-147.53;100.00;59759.91;5067064;28;19917;-84
2022/02/19 04:26:43;;;;;;;;;;;;;;;-147.53;100.00;59759.91;5067525;28;19955;-84
2022/02/19 04:29:08;;;;;;;;;;;;;;;-147.53;100.00;59759.91;5096867;22;19924;-80
2022/02/19 04:31:34;;;;;;;;;;;;;;;-147.53;100.00;59759.91;5086617;28;19920;-82
2022/02/19 04:33:59;;;;;;;;;;;;;;;-147.53;100.00;59759.91;5086127;28;19920;-82
2022/02/19 04:36:24;;;;;;;;;;;;;;;-147.53;100.00;59759.91;5087960;28;19923;-80
2022/02/19 04:38:49;;;;;;;;;;;;;;;-147.53;100.00;59759.91;5095060;22;20015;-80
2022/02/19 04:41:14;;;;;;;;;;;;;;;-147.53;100.00;59759.91;5089463;28;19920;-80
2022/02/19 04:43:40;;;;;;;;;;;;;;;-147.53;100.00;59759.91;5087978;28;19923;-83
2022/02/19 04:46:05;;;;;;;;;;;;;;;-147.53;100.00;59759.91;5087697;28;19916;-79
2022/02/19 04:48:30;;;;;;;;;;;;;;;-147.53;100.00;59759.91;5089558;28;19918;-80
2022/02/19 04:50:55;;;;;;;;;;;;;;;-147.53;100.00;59759.91;5087138;28;20358;-80
2022/02/19 04:53:21;;;;;;;;;;;;;;;-147.53;100.00;59759.91;5083855;28;19916;-88
2022/02/19 04:55:46;;;;;;;;;;;;;;;-147.53;100.00;59759.91;5082754;28;19916;-82
2022/02/19 04:58:13;;;;;;;;;;;;;;;-147.53;100.00;59759.91;5081151;28;22092;-89
2022/02/19 05:00:38;;;;;;;;;;;;;;;-147.53;100.00;59759.91;5080880;28;20362;-85
2022/02/19 05:03:04;;;;;;;;;;;;;;;-147.53;100.00;59759.91;5083462;28;19971;-83
2022/02/19 05:05:29;;;;;;;;;;;;;;;-147.53;100.00;59759.91;5084942;28;19949;-85
2022/02/19 05:07:54;;;;;;;;;;;;;;;-147.53;100.00;59759.91;5084374;28;19991;-84
2022/02/19 05:10:20;;;;;;;;;;;;;;;-147.53;100.00;59759.91;5080208;28;19924;-88
2022/02/19 05:12:45;;;;;;;;;;;;;;;-147.53;100.00;59759.91;5080480;28;19923;-88
2022/02/19 05:15:11;;;;;;;;;;;;;;;-147.53;100.00;59759.91;5080275;28;19916;-84
2022/02/19 05:17:44;;;;;;;;;;;;;;;-147.53;100.00;59759.91;5078181;28;20026;-84
2022/02/19 05:20:09;;;;;;;;;;;;;;;-147.53;100.00;59759.91;5078388;28;19924;-90
2022/02/19 05:22:35;;;;;;;;;;;;;;;-147.53;100.00;59759.91;5077072;28;19917;-81
2022/02/19 05:25:00;;;;;;;;;;;;;;;-147.53;100.00;59759.91;5076524;28;20374;-88
2022/02/19 05:27:25;;;;;;;;;;;;;;;-147.53;100.00;59759.91;5076384;28;20385;-87
2022/02/19 05:29:50;;;;;;;;;;;;;;;-147.53;100.00;59759.91;5077116;28;19916;-88
2022/02/19 05:32:15;;;;;;;;;;;;;;;-147.53;100.00;59759.91;5075407;28;19917;-85
2022/02/19 05:34:41;;;;;;;;;;;;;;;-147.53;100.00;59759.91;5076175;28;19943;-84
2022/02/19 05:37:06;;;;;;;;;;;;;;;-147.53;100.00;59759.91;5077485;28;19916;-88
2022/02/19 05:39:31;;;;;;;;;;;;;;;-147.53;100.00;59759.91;5094753;28;19924;-87
2022/02/19 05:41:57;;;;;;;;;;;;;;;-147.53;100.00;59759.91;5080004;28;19927;-86
2022/02/19 05:44:22;;;;;;;;;;;;;;;-147.53;100.00;59759.91;5080783;28;19913;-89
2022/02/19 05:46:48;;;;;;;;;;;;;;;-147.53;100.00;59759.91;5080659;28;19935;-87
2022/02/19 05:49:14;;;;;;;;;;;;;;;-147.53;100.00;59759.91;5080945;28;19916;-87
2022/02/19 05:51:39;;;;;;;;;;;;;;;-147.53;100.00;59759.91;5098651;28;19916;-86
2022/02/19 05:54:04;;;;;;;;;;;;;;;-147.53;100.00;59759.91;5083566;28;19938;-82
2022/02/19 05:56:30;;;;;;;;;;;;;;;-147.53;100.00;59759.91;5104305;28;20370;-87
2022/02/19 05:58:55;;;;;;;;;;;;;;;-147.53;100.00;59759.91;5099070;28;19916;-84
2022/02/19 06:01:21;;;;;;;;;;;;;;;-147.53;100.00;59759.91;5099368;28;19977;-87
2022/02/19 06:03:46;;;;;;;;;;;;;;;-147.53;100.00;59759.91;5081475;28;19920;-87
2022/02/19 06:06:11;;;;;;;;;;;;;;;-147.53;100.00;59759.91;5081307;28;19923;-80
2022/02/19 06:08:37;;;;;;;;;;;;;;;-147.53;100.00;59759.91;5083711;28;19975;-83
2022/02/19 06:11:03;;;;;;;;;;;;;;;-147.53;100.00;59759.91;5083662;28;19924;-80
2022/02/19 06:13:29;;;;;;;;;;;;;;;-147.53;100.00;59759.91;5081945;28;19920;-86
2022/02/19 06:15:58;;;;;;;;;;;;;;;-147.53;100.00;59759.91;5097655;28;19920;-86
2022/02/19 06:18:23;;;;;;;;;;;;;;;-147.53;100.00;59759.91;5065497;28;20073;-83
2022/02/19 06:20:48;;;;;;;;;;;;;;;-147.53;100.00;59759.91;5080957;28;20377;-85
2022/02/19 06:23:14;;;;;;;;;;;;;;;-147.53;100.00;59759.91;5082072;28;19963;-85
2022/02/19 06:25:39;;;;;;;;;;;;;;;-147.53;100.00;59759.91;5097524;28;19923;-87
2022/02/19 06:28:04;;;;;;;;;;;;;;;-147.53;100.00;59759.91;5098997;28;19916;-85
2022/02/19 06:30:29;;;;;;;;;;;;;;;-147.53;100.00;59759.91;5084039;28;20370;-83
2022/02/19 06:32:55;;;;;;;;;;;;;;;-147.53;100.00;59759.91;5082599;28;19962;-84
2022/02/19 06:35:20;;;;;;;;;;;;;;;-147.53;100.00;59759.91;5086360;28;19916;-78
2022/02/19 06:37:47;;;;;;;;;;;;;;;-147.53;100.00;59759.91;5102710;28;19916;-82
2022/02/19 06:40:14;;;;;;;;;;;;;;;-147.53;100.00;59759.91;5106914;28;19958;-81
2022/02/19 06:42:40;;;;;;;;;;;;;;;-147.53;100.00;59759.91;5083689;28;19916;-84
2022/02/19 06:45:07;;;;;;;;;;;;;;;-147.53;100.00;59759.91;5103591;28;19957;-85
2022/02/19 06:47:33;;;;;;;;;;;;;;;-147.53;100.00;59759.91;5085557;28;19992;-84
2022/02/19 06:50:00;;;;;;;;;;;;;;;-147.53;100.00;59759.91;5090013;28;19923;-83
2022/02/19 06:52:25;;;;;;;;;;;;;;;-147.53;100.00;59759.91;5091086;28;19943;-87
2022/02/19 06:54:51;;;;;;;;;;;;;;;-147.53;100.00;59759.91;5096411;22;19924;-85
2022/02/19 06:57:17;;;;;;;;;;;;;;;-147.53;100.00;59759.91;5108631;28;19927;-81
2022/02/19 06:59:42;;;;;;;;;;;;;;;-147.53;100.00;59759.91;5089843;28;19924;-87
2022/02/19 07:02:08;;;;;;;;;;;;;;;-147.53;100.00;59759.91;5085775;28;20296;-83
2022/02/19 07:04:33;;;;;;;;;;;;;;;-147.53;100.00;59759.91;5105438;28;20304;-88
2022/02/19 07:06:58;;;;;;;;;;;;;;;-147.53;100.00;59759.91;5083930;28;19962;-88
2022/02/19 07:09:24;;;;;;;;;;;;;;;-147.53;100.00;59759.91;5082555;28;19923;-86
2022/02/19 07:11:50;;;;;;;;;;;;;;;-147.53;100.00;59759.91;5100926;28;20597;-87
2022/02/19 07:14:15;;;;;;;;;;;;;;;-147.53;100.00;59759.91;5102188;28;19944;-85
2022/02/19 07:16:41;;;;;;;;;;;;;;;-147.53;100.00;59759.91;5083386;28;19927;-88
2022/02/19 07:19:06;;;;;;;;;;;;;;;-147.53;100.00;59759.91;5066238;28;19920;-89
2022/02/19 07:21:31;;;;;;;;;;;;;;;-147.53;100.00;59759.91;5082578;28;19970;-88
2022/02/19 07:23:56;;;;;;;;;;;;;;;-147.53;100.00;59759.91;5083569;28;19916;-86
2022/02/19 07:26:22;;;;;;;;;;;;;;;-147.53;100.00;59759.91;5084569;28;19973;-82
2022/02/19 07:28:47;;;;;;;;;;;;;;;-147.53;100.00;59759.91;5083736;28;19946;-84
2022/02/19 07:31:13;;;;;;;;;;;;;;;-147.53;100.00;59759.91;5084449;28;20011;-85
2022/02/19 07:33:40;;;;;;;;;;;;;;;-147.53;100.00;59759.91;5085154;28;19916;-87
2022/02/19 07:36:05;;;;;;;;;;;;;;;-147.53;100.00;59759.91;5080907;28;19920;-85
2022/02/19 07:38:30;;;;;;;;;;;;;;;-147.53;100.00;59759.91;5077927;28;19916;-86
2022/02/19 07:40:55;;;;;;;;;;;;;;;-147.53;100.00;59759.91;5096742;28;20369;-85
2022/02/19 07:43:21;;;;;;;;;;;;;;;-147.53;100.00;59759.91;5078227;28;19961;-84
2022/02/19 07:45:46;;;;;;;;;;;;;;;-147.53;100.00;59759.91;5078469;28;19916;-86
2022/02/19 07:48:13;;;;;;;;;;;;;;;-147.53;100.00;59759.91;5076980;28;20356;-87
2022/02/19 07:58:51;;;;;;;;;;;;;;;-147.53;100.00;59759.91;5099223;28;19972;-87
2022/02/19 08:01:16;;;;;;;;;;;;;;;-147.53;100.00;59759.91;5094783;28;19920;-85
2022/02/19 08:03:41;;;;;;;;;;;;;;;-147.53;100.00;59759.91;5066051;28;19916;-86
2022/02/19 08:06:07;;;;;;;;;;;;;;;-147.53;100.00;59759.91;5076911;28;19924;-82
2022/02/19 08:08:33;;;;;;;;;;;;;;;-147.53;100.00;59759.91;5096029;28;19916;-85
2022/02/19 08:10:58;;;;;;;;;;;;;;;-147.53;100.00;59759.91;5075948;28;20349;-88
2022/02/19 08:13:24;;;;;;;;;;;;;;;-147.53;100.00;59759.91;5064689;28;19916;-86
2022/02/19 08:15:50;;;;;;;;;;;;;;;-147.53;100.00;59759.91;5073881;28;19978;-86
2022/02/19 08:18:16;;;;;;;;;;;;;;;-147.53;100.00;59759.91;5062398;28;19935;-85
2022/02/19 08:20:42;;;;;;;;;;;;;;;-147.53;100.00;59759.91;5080400;28;19916;-87
2022/02/19 08:23:08;;;;;;;;;;;;;;;-147.53;100.00;59759.91;5069635;28;19916;-87
2022/02/19 08:25:34;;;;;;;;;;;;;;;-147.53;100.00;59759.91;5068905;28;19924;-88
2022/02/19 08:28:00;;;;;;;;;;;;;;;-147.53;100.00;59759.91;5074621;28;19926;-84
2022/02/19 08:30:25;;;;;;;;;;;;;;;-147.53;100.00;59759.91;5090472;28;19924;-87
2022/02/19 08:32:55;;;;;;;;;;;;;;;-147.53;100.00;59759.91;5087664;22;19931;-83
2022/02/19 08:35:23;;;;;;;;;;;;;;;-147.53;100.00;59759.91;5068832;28;20015;-83
2022/02/19 08:37:50;;;;;;;;;;;;;;;-147.53;100.00;59759.91;5060834;28;19923;-84
2022/02/19 08:40:16;;;;;;;;;;;;;;;-147.53;100.00;59759.91;5077548;28;19912;-86
2022/02/19 08:42:42;;;;;;;;;;;;;;;-147.53;100.00;59759.91;5096057;22;19932;-88
2022/02/19 08:45:07;;;;;;;;;;;;;;;-147.53;100.00;59759.91;5079140;28;19920;-82
2022/02/19 08:47:34;;;;;;;;;;;;;;;-147.53;100.00;59759.91;5068823;22;19924;-86
2022/02/19 08:50:01;;;;;;;;;;;;;;;-147.53;100.00;59759.91;5059657;28;19969;-81
2022/02/19 08:52:34;;;;;;;;;;;;;;;-147.53;100.00;59759.91;5087501;28;19916;-82
2022/02/19 08:57:24;;;;;;;;;;;;;;;-147.53;100.00;59759.91;5062849;22;19931;-89
2022/02/19 08:59:51;;;;;;;;;;;;;;;-147.53;100.00;59759.91;5036950;28;19930;-87
2022/02/19 09:02:16;;;;;;;;;;;;;;;-147.53;100.00;59759.91;5036746;28;19927;-87
2022/02/19 09:04:41;;;;;;;;;;;;;;;-147.53;100.00;59759.91;5034165;28;19921;-86
2022/02/19 09:07:07;;;;;;;;;;;;;;;-147.53;100.00;59759.91;5033104;28;19923;-87
2022/02/19 09:09:36;;;;;;;;;;;;;;;-147.53;100.00;59759.91;5033911;28;19971;-90
2022/02/19 09:12:01;;;;;;;;;;;;;;;-147.53;100.00;59759.91;5033188;28;19917;-85
2022/02/19 09:14:27;;;;;;;;;;;;;;;-147.53;100.00;59759.91;5032981;28;20013;-87
2022/02/19 09:16:52;;;;;;;;;;;;;;;-147.53;100.00;59759.91;5032855;28;20000;-86
2022/02/19 09:19:17;;;;;;;;;;;;;;;-147.53;100.00;59759.91;5017919;28;19924;-87
2022/02/19 09:21:43;;;;;;;;;;;;;;;-147.53;100.00;59759.91;5034871;28;19917;-86
2022/02/19 09:24:08;;;;;;;;;;;;;;;-147.53;100.00;59759.91;5034526;28;19943;-85
2022/02/19 09:26:34;;;;;;;;;;;;;;;-147.53;100.00;59759.91;5062722;22;20066;-87
2022/02/19 09:28:59;;;;;;;;;;;;;;;-147.53;100.00;59759.91;5053836;28;20018;-86
2022/02/19 09:31:24;;;;;;;;;;;;;;;-147.53;100.00;59759.91;5036623;28;19917;-85
2022/02/19 09:33:49;;;;;;;;;;;;;;;-147.53;100.00;59759.91;5036613;28;19939;-83
2022/02/19 09:36:15;;;;;;;;;;;;;;;-147.53;100.00;59759.91;5036199;28;20294;-84
2022/02/19 09:38:40;;;;;;;;;;;;;;;-147.53;100.00;59759.91;5035386;28;19950;-84
2022/02/19 09:41:09;;;;;;;;;;;;;;;-147.53;100.00;59759.91;5036862;28;19917;-85
2022/02/19 09:43:34;;;;;;;;;;;;;;;-147.53;100.00;59759.91;5042641;28;20363;-84
2022/02/19 09:46:02;;;;;;;;;;;;;;;-147.53;100.00;59759.91;5058051;28;19920;-85
2022/02/19 09:48:27;;;;;;;;;;;;;;;-147.53;100.00;59759.91;5035466;28;19917;-85
2022/02/19 09:50:54;;;;;;;;;;;;;;;-147.53;100.00;59759.91;5053387;28;19930;-85
2022/02/19 09:53:19;;;;;;;;;;;;;;;-147.53;100.00;59759.91;5037348;28;19960;-88
2022/02/19 09:55:44;;;;;;;;;;;;;;;-147.53;100.00;59759.91;5054553;28;19917;-87
2022/02/19 09:58:10;;;;;;;;;;;;;;;-147.53;100.00;59759.91;5036529;28;19929;-84
2022/02/19 10:00:35;;;;;;;;;;;;;;;-147.53;100.00;59759.91;5037264;28;19917;-88
2022/02/19 10:03:00;;;;;;;;;;;;;;;-147.53;100.00;59759.91;5038129;28;20362;-89
2022/02/19 10:05:29;;;;;;;;;;;;;;;-147.53;100.00;59759.91;5055200;28;19921;-86
2022/02/19 10:08:04;;;;;;;;;;;;;;;-147.53;100.00;59759.91;5055293;28;19955;-86
2022/02/19 10:10:30;;;;;;;;;;;;;;;-147.53;100.00;59759.91;5034531;28;19917;-85
2022/02/19 10:12:55;;;;;;;;;;;;;;;-147.53;100.00;59759.91;5037948;28;20275;-87
2022/02/19 10:15:21;;;;;;;;;;;;;;;-147.53;100.00;59759.91;5038744;28;20020;-89
2022/02/19 10:17:46;;;;;;;;;;;;;;;-147.53;100.00;59759.91;5039114;28;20436;-84
2022/02/19 10:20:14;;;;;;;;;;;;;;;-147.53;100.00;59759.91;5040639;28;19917;-84
2022/02/19 10:22:40;;;;;;;;;;;;;;;-147.53;100.00;59759.91;5056209;28;19917;-83
2022/02/19 10:25:05;;;;;;;;;;;;;;;-147.53;100.00;59759.91;5038681;28;19917;-82
2022/02/19 10:27:45;;;;;;;;;;;;;;;-147.53;100.00;59759.91;5039962;28;19925;-81
2022/02/19 10:30:18;;;;;;;;;;;;;;;-147.53;100.00;59759.91;5037469;28;19929;-80
2022/02/19 10:32:57;;;;;;;;;;;;;;;-147.53;100.00;59759.91;5036444;28;19921;-81
2022/02/19 10:35:30;;;;;;;;;;;;;;;-147.53;100.00;59759.91;5036937;28;19917;-85
2022/02/19 10:37:56;;;;;;;;;;;;;;;-147.53;100.00;59759.91;5038250;28;19917;-83
2022/02/19 10:40:27;;;;;;;;;;;;;;;-147.53;100.00;59759.91;5055015;28;19917;-82
2022/02/19 10:42:57;;;;;;;;;;;;;;;-147.53;100.00;59759.91;5037977;28;19916;-84
2022/02/19 10:45:22;;;;;;;;;;;;;;;-147.53;100.00;59759.91;5037635;28;19916;-83
2022/02/19 10:47:47;;;;;;;;;;;;;;;-147.53;100.00;59759.91;5038001;28;19917;-83
2022/02/19 10:50:18;;;;;;;;;;;;;;;-147.53;100.00;59759.91;5056017;28;20370;-84
2022/02/19 10:52:50;;;;;;;;;;;;;;;-147.53;100.00;59759.91;5035803;28;20012;-86
2022/02/19 10:55:19;;;;;;;;;;;;;;;-147.53;100.00;59759.91;5036622;28;19917;-84
2022/02/19 10:57:45;;;;;;;;;;;;;;;-147.53;100.00;59759.91;5037073;28;19929;-84
2022/02/19 11:00:11;;;;;;;;;;;;;;;-147.53;100.00;59759.91;5033982;28;19925;-85
2022/02/19 11:02:37;;;;;;;;;;;;;;;-147.53;100.00;59759.91;5037028;28;19928;-83
2022/02/19 11:05:02;;;;;;;;;;;;;;;-147.53;100.00;59759.91;5036375;28;19917;-84
2022/02/19 11:07:28;;;;;;;;;;;;;;;-147.53;100.00;59759.91;5036342;28;19924;-82
2022/02/19 11:09:53;;;;;;;;;;;;;;;-147.53;100.00;59759.91;5036405;28;19925;-84
2022/02/19 11:12:19;;;;;;;;;;;;;;;-147.53;100.00;59759.91;5037391;28;20268;-85
2022/02/19 11:14:44;;;;;;;;;;;;;;;-147.53;100.00;59759.91;5037109;28;19923;-87
2022/02/19 11:17:12;;;;;;;;;;;;;;;-147.53;100.00;59759.91;5055531;28;19917;-86
2022/02/19 11:19:37;;;;;;;;;;;;;;;-147.53;100.00;59759.91;5039559;28;19933;-86
2022/02/19 11:22:03;;;;;;;;;;;;;;;-147.53;100.00;59759.91;5029909;28;20009;-86
2022/02/19 11:24:29;;;;;;;;;;;;;;;-147.53;100.00;59759.91;5038036;28;19917;-86
2022/02/19 11:26:58;;;;;;;;;;;;;;;-147.53;100.00;59759.91;5036706;28;20023;-88
2022/02/19 11:29:24;;;;;;;;;;;;;;;-147.53;100.00;59759.91;5027686;28;20279;-86
2022/02/19 11:31:51;;;;;;;;;;;;;;;-147.53;100.00;59759.91;5038832;28;19916;-85
2022/02/19 11:34:20;;;;;;;;;;;;;;;-147.53;100.00;59759.91;5037830;28;19973;-87
2022/02/19 11:36:46;;;;;;;;;;;;;;;-147.53;100.00;59759.91;5038497;28;19921;-87
2022/02/19 11:39:12;;;;;;;;;;;;;;;-147.53;100.00;59759.91;5039669;28;20386;-86
2022/02/19 11:41:42;;;;;;;;;;;;;;;-147.53;100.00;59759.91;5087384;22;19924;-89
2022/02/19 11:44:36;;;;;;;;;;;;;;;-147.53;100.00;59759.91;5098902;28;20331;-89
2022/02/19 11:47:21;;;;;;;;;;;;;;;-147.53;100.00;59759.91;5089959;28;19923;-88
2022/02/19 11:49:46;;;;;;;;;;;;;;;-147.53;100.00;59759.91;5095277;28;20041;-88
2022/02/19 11:52:12;;;;;;;;;;;;;;;-147.53;100.00;59759.91;5101353;28;20303;-89
2022/02/19 11:54:37;;;;;;;;;;;;;;;-147.53;100.00;59759.91;5099858;28;19941;-85
2022/02/19 11:57:12;;;;;;;;;;;;;;;-147.53;100.00;59759.91;5102007;28;20039;-90
2022/02/19 11:59:50;;;;;;;;;;;;;;;-147.53;100.00;59759.91;5116683;28;20369;-86
2022/02/19 12:02:18;;;;;;;;;;;;;;;-147.53;100.00;59759.91;5098239;28;19959;-86
2022/02/19 12:04:43;;;;;;;;;;;;;;;-147.53;100.00;59759.91;5098462;28;20010;-89
2022/02/19 12:07:09;;;;;;;;;;;;;;;-147.53;100.00;59759.91;5099860;28;19990;-86
2022/02/19 12:09:54;;;;;;;;;;;;;;;-147.53;100.00;59759.91;5098162;28;19919;-88
2022/02/19 12:12:20;;;;;;;;;;;;;;;-147.53;100.00;59759.91;5096745;28;19923;-89
2022/02/19 12:14:47;;;;;;;;;;;;;;;-147.53;100.00;59759.91;5100448;28;19922;-85
2022/02/19 12:17:18;;;;;;;;;;;;;;;-147.53;100.00;59759.91;5105022;28;19975;-93
2022/02/19 12:19:56;;;;;;;;;;;;;;;-147.53;100.00;59759.91;5111781;28;20003;-90
2022/02/19 12:22:44;;;;;;;;;;;;;;;-147.53;100.00;59759.91;5124104;27;20299;-93
2022/02/19 12:25:10;;;;;;;;;;;;;;;-147.53;100.00;59759.91;5121910;27;19916;-89